createdAt,value
2018-04-14T00:00:49.729Z,82.53
2018-04-14T00:03:17.271Z,88.40
2018-04-14T00:05:45.319Z,77.30
2018-04-14T00:08:12.840Z,84.80
2018-04-14T00:10:40.347Z,80.30
2018-04-14T00:13:07.885Z,86.73
2018-04-14T00:15:35.423Z,79.77
2018-04-14T00:18:02.976Z,74.90
2018-04-14T00:20:31.269Z,77.90
2018-04-14T00:22:58.959Z,74.77
2018-04-14T00:25:26.489Z,82.80
2018-04-14T00:27:54.595Z,74.73
2018-04-14T00:30:22.108Z,74.50
2018-04-14T00:32:50.382Z,80.63
2018-04-14T00:35:17.896Z,69.10
2018-04-14T00:37:45.403Z,71.00
2018-04-14T00:40:12.955Z,68.87
2018-04-14T00:42:41.243Z,67.27
2018-04-14T00:45:08.782Z,71.70
2018-04-14T00:47:36.282Z,64.57
2018-04-14T00:50:03.794Z,62.07
2018-04-14T00:52:32.070Z,63.67
2018-04-14T00:55:00.370Z,55.73
2018-04-14T00:57:27.870Z,53.07
2018-04-14T00:59:55.390Z,57.60
2018-04-14T01:02:22.910Z,53.33
2018-04-14T01:04:51.203Z,59.87
2018-04-14T01:07:19.649Z,52.63
2018-04-14T01:09:47.178Z,48.40
2018-04-14T01:12:14.707Z,50.20
2018-04-14T01:14:42.225Z,52.27
2018-04-14T01:17:10.693Z,53.97
2018-04-14T01:19:38.231Z,50.00
2018-04-14T01:22:05.819Z,50.17
2018-04-14T01:24:33.339Z,46.53
2018-04-14T01:27:00.854Z,45.13
2018-04-14T01:29:30.005Z,51.33
2018-04-14T01:31:57.562Z,40.67
2018-04-14T01:34:25.074Z,40.87
2018-04-14T01:36:52.660Z,39.97
2018-04-14T01:39:20.172Z,40.53
2018-04-14T01:41:47.697Z,43.73
2018-04-14T01:44:15.253Z,37.80
2018-04-14T01:46:42.769Z,42.67
2018-04-14T01:49:10.293Z,38.27
2018-04-14T01:51:37.823Z,43.20
2018-04-14T01:54:05.379Z,36.33
2018-04-14T01:56:32.905Z,38.83
2018-04-14T01:59:01.233Z,41.93
2018-04-14T02:01:28.759Z,37.07
2018-04-14T02:03:56.268Z,41.27
2018-04-14T02:06:24.421Z,33.07
2018-04-14T02:08:51.926Z,34.17
2018-04-14T02:11:19.459Z,32.23
2018-04-14T02:13:46.965Z,34.97
2018-04-14T02:16:14.727Z,32.63
2018-04-14T02:18:42.245Z,32.50
2018-04-14T02:21:09.775Z,35.57
2018-04-14T02:23:37.278Z,30.27
2018-04-14T02:26:04.789Z,30.13
2018-04-14T02:28:32.327Z,32.90
2018-04-14T02:30:59.851Z,33.67
2018-04-14T02:33:28.135Z,31.47
2018-04-14T02:35:55.681Z,27.93
2018-04-14T02:38:23.985Z,30.83
2018-04-14T02:40:51.507Z,28.07
2018-04-14T02:43:19.035Z,27.80
2018-04-14T02:45:46.557Z,30.37
2018-04-14T02:48:14.833Z,28.70
2018-04-14T02:50:43.111Z,29.50
2018-04-14T02:53:11.387Z,29.07
2018-04-14T02:55:38.919Z,29.50
2018-04-14T02:58:06.511Z,30.30
2018-04-14T03:00:34.049Z,30.77
2018-04-14T03:03:01.629Z,30.20
2018-04-14T03:05:29.147Z,29.47
2018-04-14T03:07:56.663Z,29.63
2018-04-14T03:10:24.236Z,32.57
2018-04-14T03:12:52.465Z,29.10
2018-04-14T03:15:20.759Z,28.70
2018-04-14T03:17:48.271Z,31.87
2018-04-14T03:20:15.790Z,29.47
2018-04-14T03:22:43.311Z,24.30
2018-04-14T03:25:11.587Z,31.97
2018-04-14T03:27:39.867Z,30.10
2018-04-14T03:30:08.170Z,26.77
2018-04-14T03:32:35.679Z,25.10
2018-04-14T03:35:03.183Z,27.53
2018-04-14T03:37:30.715Z,24.80
2018-04-14T03:39:59.002Z,28.17
2018-04-14T03:42:26.535Z,27.87
2018-04-14T03:44:54.256Z,26.27
2018-04-14T03:47:21.774Z,26.67
2018-04-14T03:49:50.064Z,27.47
2018-04-14T03:52:17.599Z,31.07
2018-04-14T03:54:45.126Z,27.53
2018-04-14T03:57:12.725Z,29.40
2018-04-14T03:59:40.244Z,31.47
2018-04-14T04:02:07.761Z,30.17
2018-04-14T04:04:35.277Z,31.23
2018-04-14T04:07:02.815Z,36.00
2018-04-14T04:09:30.329Z,32.50
2018-04-14T04:11:57.859Z,31.27
2018-04-14T04:14:26.169Z,28.67
2018-04-14T04:16:53.710Z,30.23
2018-04-14T04:19:33.805Z,28.47
2018-04-14T04:22:13.039Z,31.57
2018-04-14T04:24:52.441Z,30.27
2018-04-14T04:27:19.979Z,26.70
2018-04-14T04:29:48.683Z,26.97
2018-04-14T04:32:17.061Z,24.13
2018-04-14T04:34:44.606Z,29.47
2018-04-14T04:37:13.441Z,25.23
2018-04-14T04:39:40.970Z,27.17
2018-04-14T04:42:08.568Z,27.63
2018-04-14T04:44:36.085Z,26.97
2018-04-14T04:47:03.598Z,26.87
2018-04-14T04:49:31.125Z,30.47
2018-04-14T04:51:58.692Z,26.53
2018-04-14T04:54:26.205Z,25.87
2018-04-14T04:56:53.851Z,27.13
2018-04-14T04:59:21.439Z,28.80
2018-04-14T05:01:48.980Z,28.00
2018-04-14T05:04:16.507Z,30.37
2018-04-14T05:06:44.020Z,28.07
2018-04-14T05:09:11.539Z,30.77
2018-04-14T05:11:39.103Z,31.87
2018-04-14T05:14:06.653Z,35.43
2018-04-14T05:16:34.178Z,29.70
2018-04-14T05:19:01.697Z,30.33
2018-04-14T05:21:29.988Z,33.27
2018-04-14T05:23:57.589Z,35.33
2018-04-14T05:26:25.109Z,31.00
2018-04-14T05:28:52.625Z,35.37
2018-04-14T05:31:20.349Z,35.57
2018-04-14T05:33:48.114Z,33.53
2018-04-14T05:36:15.646Z,35.30
2018-04-14T05:38:43.322Z,34.20
2018-04-14T05:41:10.827Z,36.20
2018-04-14T05:43:38.687Z,37.23
2018-04-14T05:46:06.291Z,35.00
2018-04-14T05:48:33.829Z,35.67
2018-04-14T05:51:02.243Z,38.07
2018-04-14T05:53:29.755Z,40.37
2018-04-14T05:55:57.263Z,39.67
2018-04-14T05:58:24.777Z,40.53
2018-04-14T06:00:52.495Z,36.00
2018-04-14T06:03:20.029Z,29.97
2018-04-14T06:05:48.319Z,26.63
2018-04-14T06:08:15.831Z,27.90
2018-04-14T06:10:44.115Z,29.53
2018-04-14T06:13:11.631Z,27.80
2018-04-14T06:15:39.153Z,20.77
2018-04-14T06:18:06.707Z,23.30
2018-04-14T06:20:34.240Z,21.40
2018-04-14T06:23:01.767Z,21.53
2018-04-14T06:25:29.281Z,22.03
2018-04-14T06:27:56.843Z,21.50
2018-04-14T06:30:25.119Z,20.40
2018-04-14T06:32:53.587Z,19.67
2018-04-14T06:35:21.880Z,21.40
2018-04-14T06:37:49.393Z,24.27
2018-04-14T06:40:16.923Z,24.83
2018-04-14T06:42:45.410Z,22.77
2018-04-14T06:45:13.284Z,22.53
2018-04-14T06:47:40.812Z,27.37
2018-04-14T06:50:08.483Z,25.43
2018-04-14T06:52:36.017Z,24.93
2018-04-14T06:55:03.561Z,23.33
2018-04-14T06:57:32.658Z,22.93
2018-04-14T07:00:00.983Z,22.27
2018-04-14T07:02:28.665Z,34.53
2018-04-14T07:04:56.420Z,26.87
2018-04-14T07:07:23.931Z,32.80
2018-04-14T07:09:51.453Z,29.77
2018-04-14T07:12:19.023Z,29.97
2018-04-14T07:14:46.669Z,34.60
2018-04-14T07:17:14.187Z,33.17
2018-04-14T07:19:41.708Z,35.53
2018-04-14T07:22:09.265Z,37.50
2018-04-14T07:24:37.553Z,39.13
2018-04-14T07:27:05.831Z,39.83
2018-04-14T07:29:34.096Z,41.87
2018-04-14T07:32:02.393Z,44.20
2018-04-14T07:34:29.923Z,47.30
2018-04-14T07:36:57.442Z,43.10
2018-04-14T07:39:25.351Z,40.20
2018-04-14T07:41:53.647Z,39.93
2018-04-14T07:44:21.936Z,42.07
2018-04-14T07:46:49.450Z,42.00
2018-04-14T07:49:16.976Z,37.27
2018-04-14T07:51:44.508Z,41.03
2018-04-14T07:54:12.042Z,40.70
2018-04-14T07:56:39.949Z,44.07
2018-04-14T07:59:07.455Z,46.07
2018-04-14T08:01:34.972Z,44.00
2018-04-14T08:04:02.640Z,46.00
2018-04-14T08:06:30.955Z,45.47
2018-04-14T08:08:58.511Z,47.23
2018-04-14T08:11:26.803Z,47.30
2018-04-14T08:13:55.071Z,46.43
2018-04-14T08:16:23.364Z,50.77
2018-04-14T08:18:52.199Z,48.30
2018-04-14T08:21:19.711Z,49.90
2018-04-14T08:23:48.088Z,48.53
2018-04-14T08:26:15.763Z,51.57
2018-04-14T08:28:43.573Z,51.23
2018-04-14T08:31:11.765Z,52.67
2018-04-14T08:33:39.288Z,55.47
2018-04-14T08:36:06.816Z,52.33
2018-04-14T08:38:34.362Z,57.37
2018-04-14T08:41:02.668Z,57.00
2018-04-14T08:43:30.316Z,54.60
2018-04-14T08:45:57.848Z,57.33
2018-04-14T08:48:25.376Z,53.10
2018-04-14T08:50:52.997Z,57.43
2018-04-14T08:53:20.539Z,53.30
2018-04-14T08:55:48.079Z,54.07
2018-04-14T08:58:15.602Z,55.30
2018-04-14T09:00:43.146Z,58.03
2018-04-14T09:03:10.677Z,61.23
2018-04-14T09:05:38.193Z,55.93
2018-04-14T09:08:05.695Z,54.43
2018-04-14T09:10:33.209Z,58.67
2018-04-14T09:13:00.795Z,62.33
2018-04-14T09:15:29.091Z,61.80
2018-04-14T09:17:56.624Z,56.97
2018-04-14T09:20:24.151Z,61.30
2018-04-14T09:22:51.777Z,59.90
2018-04-14T09:25:19.303Z,56.53
2018-04-14T09:27:47.613Z,65.10
2018-04-14T09:30:15.130Z,64.30
2018-04-14T09:32:42.665Z,57.27
2018-04-14T09:35:10.197Z,49.83
2018-04-14T09:37:37.728Z,56.23
2018-04-14T09:40:05.259Z,52.20
2018-04-14T09:42:32.783Z,54.07
2018-04-14T09:45:01.078Z,55.00
2018-04-14T09:47:29.204Z,52.67
2018-04-14T09:49:56.725Z,55.57
2018-04-14T09:52:24.338Z,61.10
2018-04-14T09:54:52.507Z,52.37
2018-04-14T09:57:20.065Z,65.70
2018-04-14T09:59:47.604Z,63.40
2018-04-14T10:02:15.127Z,59.47
2018-04-14T10:04:42.649Z,56.37
2018-04-14T10:07:10.575Z,62.27
2018-04-14T10:09:38.872Z,60.23
2018-04-14T10:12:06.407Z,59.10
2018-04-14T10:14:33.955Z,55.63
2018-04-14T10:17:01.501Z,57.17
2018-04-14T10:19:29.059Z,54.10
2018-04-14T10:21:56.580Z,54.53
2018-04-14T10:24:24.132Z,56.27
2018-04-14T10:26:51.892Z,55.43
2018-04-14T10:29:19.414Z,54.73
2018-04-14T10:31:47.694Z,55.67
2018-04-14T10:34:15.232Z,56.13
2018-04-14T10:36:42.766Z,55.80
2018-04-14T10:39:10.318Z,57.57
2018-04-14T10:41:37.834Z,54.87
2018-04-14T10:44:06.156Z,58.47
2018-04-14T10:46:33.680Z,59.50
2018-04-14T10:49:01.212Z,56.30
2018-04-14T10:51:28.827Z,62.00
2018-04-14T10:53:56.352Z,63.20
2018-04-14T10:56:24.655Z,65.03
2018-04-14T10:58:52.165Z,58.07
2018-04-14T11:01:21.215Z,61.30
2018-04-14T11:03:49.004Z,58.47
2018-04-14T11:06:16.639Z,62.43
2018-04-14T11:08:44.168Z,59.07
2018-04-14T11:11:12.476Z,62.80
2018-04-14T11:13:40.138Z,57.40
2018-04-14T11:16:07.652Z,56.50
2018-04-14T11:18:35.978Z,59.10
2018-04-14T11:21:03.503Z,59.63
2018-04-14T11:23:31.032Z,62.00
2018-04-14T11:25:58.555Z,66.87
2018-04-14T11:28:26.638Z,55.03
2018-04-14T11:30:54.158Z,56.07
2018-04-14T11:33:21.711Z,56.03
2018-04-14T11:35:49.289Z,57.37
2018-04-14T11:38:16.847Z,52.07
2018-04-14T11:40:44.372Z,54.30
2018-04-14T11:43:11.922Z,53.70
2018-04-14T11:45:40.245Z,61.57
2018-04-14T11:48:08.568Z,60.30
2018-04-14T11:50:36.174Z,56.07
2018-04-14T11:53:03.717Z,57.60
2018-04-14T11:55:31.269Z,54.03
2018-04-14T11:58:00.218Z,59.77
2018-04-14T12:00:27.816Z,55.23
2018-04-14T12:02:56.119Z,55.27
2018-04-14T12:05:23.647Z,52.37
2018-04-14T12:07:51.175Z,55.17
2018-04-14T12:10:18.719Z,55.37
2018-04-14T12:12:46.289Z,49.97
2018-04-14T12:15:13.839Z,56.13
2018-04-14T12:17:41.367Z,50.50
2018-04-14T12:20:08.893Z,50.87
2018-04-14T12:22:37.185Z,49.80
2018-04-14T12:25:04.861Z,45.87
2018-04-14T12:27:32.403Z,45.83
2018-04-14T12:29:59.971Z,44.20
2018-04-14T12:32:27.485Z,43.53
2018-04-14T12:34:55.761Z,45.93
2018-04-14T12:37:23.363Z,42.23
2018-04-14T12:39:50.895Z,42.30
2018-04-14T12:42:18.499Z,42.07
2018-04-14T12:44:46.057Z,45.73
2018-04-14T12:47:13.582Z,39.87
2018-04-14T12:49:41.893Z,40.73
2018-04-14T12:52:09.410Z,40.40
2018-04-14T12:54:37.728Z,35.40
2018-04-14T12:57:05.258Z,40.53
2018-04-14T12:59:33.552Z,38.20
2018-04-14T13:02:01.162Z,35.47
2018-04-14T13:04:29.481Z,34.57
2018-04-14T13:06:57.786Z,38.23
2018-04-14T13:09:25.311Z,30.70
2018-04-14T13:11:52.839Z,35.63
2018-04-14T13:14:20.408Z,33.83
2018-04-14T13:16:48.125Z,33.70
2018-04-14T13:19:15.661Z,36.87
2018-04-14T13:21:43.247Z,31.70
2018-04-14T13:24:10.785Z,33.57
2018-04-14T13:26:38.381Z,30.87
2018-04-14T13:29:05.923Z,34.63
2018-04-14T13:31:33.469Z,29.57
2018-04-14T13:34:00.994Z,32.13
2018-04-14T13:36:29.304Z,31.60
2018-04-14T13:38:56.942Z,30.57
2018-04-14T13:41:25.241Z,31.13
2018-04-14T13:43:52.779Z,29.87
2018-04-14T13:46:20.356Z,30.93
2018-04-14T13:48:47.873Z,31.23
2018-04-14T13:51:16.163Z,29.03
2018-04-14T13:53:43.719Z,29.27
2018-04-14T13:56:12.030Z,31.73
2018-04-14T13:58:39.585Z,29.60
2018-04-14T14:01:07.122Z,29.63
2018-04-14T14:03:35.442Z,30.93
2018-04-14T14:06:02.990Z,32.70
2018-04-14T14:08:31.448Z,31.67
2018-04-14T14:10:59.030Z,31.10
2018-04-14T14:13:26.557Z,31.83
2018-04-14T14:15:54.094Z,32.27
2018-04-14T14:18:22.395Z,31.13
2018-04-14T14:20:50.703Z,31.37
2018-04-14T14:23:18.237Z,30.47
2018-04-14T14:25:45.777Z,31.43
2018-04-14T14:28:14.178Z,30.43
2018-04-14T14:30:41.729Z,32.13
2018-04-14T14:33:09.266Z,30.40
2018-04-14T14:35:36.794Z,30.57
2018-04-14T14:38:04.326Z,33.97
2018-04-14T14:40:31.855Z,30.10
2018-04-14T14:42:59.544Z,30.63
2018-04-14T14:45:27.102Z,35.43
2018-04-14T14:47:54.637Z,31.27
2018-04-14T14:50:27.747Z,31.20
2018-04-14T14:52:55.291Z,30.93
2018-04-14T14:55:22.872Z,30.33
2018-04-14T14:57:50.415Z,32.47
2018-04-14T15:00:18.085Z,30.50
2018-04-14T15:02:45.637Z,30.93
2018-04-14T15:05:13.795Z,33.73
2018-04-14T15:07:41.333Z,32.90
2018-04-14T15:10:08.855Z,32.87
2018-04-14T15:12:36.405Z,34.50
2018-04-14T15:15:03.935Z,31.40
2018-04-14T15:17:31.656Z,32.10
2018-04-14T15:19:59.185Z,32.87
2018-04-14T15:22:26.821Z,32.57
2018-04-14T15:24:54.359Z,31.33
2018-04-14T15:27:21.892Z,31.77
2018-04-14T15:29:49.424Z,33.40
2018-04-14T15:32:16.950Z,30.47
2018-04-14T15:34:44.466Z,29.90
2018-04-14T15:37:12.059Z,32.50
2018-04-14T15:39:40.351Z,31.50
2018-04-14T15:42:08.138Z,32.93
2018-04-14T15:44:35.687Z,33.63
2018-04-14T15:47:03.221Z,33.23
2018-04-14T15:49:31.024Z,31.87
2018-04-14T15:51:58.603Z,33.70
2018-04-14T15:54:26.129Z,30.17
2018-04-14T15:56:53.668Z,33.10
2018-04-14T15:59:21.204Z,29.57
2018-04-14T16:01:49.496Z,31.70
2018-04-14T16:04:17.046Z,30.53
2018-04-14T16:06:44.636Z,30.80
2018-04-14T16:09:12.177Z,31.13
2018-04-14T16:11:39.752Z,30.13
2018-04-14T16:14:07.297Z,33.13
2018-04-14T16:16:34.848Z,28.07
2018-04-14T16:19:03.143Z,27.63
2018-04-14T16:21:30.675Z,29.03
2018-04-14T16:23:58.909Z,30.33
2018-04-14T16:26:26.451Z,32.93
2018-04-14T16:28:54.290Z,29.87
2018-04-14T16:31:21.865Z,30.40
2018-04-14T16:33:49.395Z,28.13
2018-04-14T16:36:16.968Z,28.93
2018-04-14T16:38:44.515Z,30.67
2018-04-14T16:41:12.061Z,30.70
2018-04-14T16:43:40.690Z,30.60
2018-04-14T16:46:08.230Z,29.43
2018-04-14T16:48:35.763Z,27.33
2018-04-14T16:51:03.330Z,30.13
2018-04-14T16:53:31.653Z,28.77
2018-04-14T16:55:59.226Z,30.57
2018-04-14T16:58:26.752Z,29.57
2018-04-14T17:00:54.804Z,30.40
2018-04-14T17:03:22.380Z,32.00
2018-04-14T17:05:50.627Z,32.13
2018-04-14T17:08:18.933Z,32.00
2018-04-14T17:10:47.027Z,32.87
2018-04-14T17:13:14.567Z,30.93
2018-04-14T17:15:42.106Z,32.93
2018-04-14T17:18:09.654Z,33.40
2018-04-14T17:20:37.958Z,32.77
2018-04-14T17:23:05.506Z,32.87
2018-04-14T17:25:33.032Z,34.77
2018-04-14T17:28:00.560Z,33.27
2018-04-14T17:30:28.606Z,31.93
2018-04-14T17:32:56.132Z,31.67
2018-04-14T17:35:23.668Z,32.33
2018-04-14T17:37:51.642Z,33.17
2018-04-14T17:40:19.182Z,34.27
2018-04-14T17:42:46.713Z,34.93
2018-04-14T17:45:14.247Z,34.17
2018-04-14T17:47:41.799Z,33.97
2018-04-14T17:50:10.096Z,32.87
2018-04-14T17:52:37.675Z,31.93
2018-04-14T17:55:05.231Z,32.75
2018-04-14T17:57:32.765Z,31.30
2018-04-14T18:00:00.299Z,35.93
2018-04-14T18:02:28.654Z,34.13
2018-04-14T18:04:56.189Z,31.83
2018-04-14T18:07:24.199Z,35.13
2018-04-14T18:09:51.761Z,35.80
2018-04-14T18:12:20.063Z,30.93
2018-04-14T18:14:47.599Z,32.47
2018-04-14T18:17:15.143Z,36.50
2018-04-14T18:19:42.697Z,32.03
2018-04-14T18:22:11.667Z,37.20
2018-04-14T18:24:39.314Z,35.13
2018-04-14T18:27:06.872Z,37.03
2018-04-14T18:29:34.458Z,34.00
2018-04-14T18:32:02.034Z,32.10
2018-04-14T18:34:29.573Z,37.57
2018-04-14T18:36:57.113Z,41.07
2018-04-14T18:39:24.856Z,35.47
2018-04-14T18:41:52.836Z,37.10
2018-04-14T18:44:20.382Z,38.13
2018-04-14T18:46:47.950Z,35.73
2018-04-14T18:49:15.491Z,42.43
2018-04-14T18:51:43.052Z,39.67
2018-04-14T18:54:10.629Z,38.47
2018-04-14T18:56:38.192Z,42.27
2018-04-14T18:59:05.758Z,40.67
2018-04-14T19:01:33.425Z,38.67
2018-04-14T19:04:00.984Z,39.37
2018-04-14T19:06:28.608Z,38.33
2018-04-14T19:08:56.280Z,38.07
2018-04-14T19:11:23.978Z,45.23
2018-04-14T19:13:51.593Z,41.00
2018-04-14T19:16:19.176Z,38.90
2018-04-14T19:18:47.023Z,40.70
2018-04-14T19:21:14.599Z,42.47
2018-04-14T19:23:42.178Z,40.90
2018-04-14T19:26:09.715Z,38.50
2018-04-14T19:28:37.481Z,38.67
2018-04-14T19:31:05.048Z,40.83
2018-04-14T19:33:32.634Z,35.50
2018-04-14T19:36:00.216Z,39.37
2018-04-14T19:38:27.821Z,40.83
2018-04-14T19:40:55.409Z,34.30
2018-04-14T19:43:23.004Z,32.60
2018-04-14T19:45:50.581Z,30.33
2018-04-14T19:48:18.159Z,30.10
2018-04-14T19:50:45.759Z,30.63
2018-04-14T19:53:13.333Z,28.37
2018-04-14T19:55:41.271Z,32.13
2018-04-14T19:58:08.845Z,30.53
2018-04-14T20:00:37.005Z,29.20
2018-04-14T20:03:04.567Z,28.77
2018-04-14T20:05:32.168Z,32.73
2018-04-14T20:08:00.685Z,33.53
2018-04-14T20:10:28.237Z,33.40
2018-04-14T20:12:56.572Z,32.27
2018-04-14T20:15:24.139Z,34.40
2018-04-14T20:17:52.460Z,32.40
2018-04-14T20:20:20.025Z,35.87
2018-04-14T20:22:47.574Z,36.47
2018-04-14T20:25:15.149Z,33.47
2018-04-14T20:27:42.723Z,37.03
2018-04-14T20:30:10.302Z,33.70
2018-04-14T20:32:38.644Z,35.60
2018-04-14T20:35:06.201Z,35.00
2018-04-14T20:37:33.751Z,35.30
2018-04-14T20:40:01.280Z,33.70
2018-04-14T20:42:28.902Z,35.73
2018-04-14T20:44:58.099Z,34.70
2018-04-14T20:47:25.631Z,36.73
2018-04-14T20:49:53.192Z,37.67
2018-04-14T20:52:20.754Z,34.70
2018-04-14T20:54:48.295Z,35.57
2018-04-14T20:57:15.837Z,39.03
2018-04-14T20:59:43.668Z,36.80
2018-04-14T21:02:11.272Z,38.30
2018-04-14T21:04:38.839Z,39.83
2018-04-14T21:07:07.445Z,37.97
2018-04-14T21:09:35.330Z,37.37
2018-04-14T21:12:03.776Z,38.67
2018-04-14T21:14:31.335Z,37.53
2018-04-14T21:16:58.954Z,35.47
2018-04-14T21:19:27.267Z,39.80
2018-04-14T21:21:54.851Z,41.17
2018-04-14T21:24:22.387Z,39.40
2018-04-14T21:26:49.915Z,40.47
2018-04-14T21:29:17.498Z,37.63
2018-04-14T21:31:45.055Z,39.67
2018-04-14T21:34:12.634Z,37.17
2018-04-14T21:36:40.190Z,38.43
2018-04-14T21:39:07.721Z,39.30
2018-04-14T21:41:35.483Z,42.63
2018-04-14T21:44:03.027Z,44.03
2018-04-14T21:46:31.347Z,40.43
2018-04-14T21:48:59.003Z,39.97
2018-04-14T21:51:26.529Z,46.20
2018-04-14T21:53:54.225Z,42.73
2018-04-14T21:56:21.749Z,43.33
2018-04-14T21:58:49.288Z,46.67
2018-04-14T22:01:16.839Z,47.00
2018-04-14T22:03:44.364Z,42.53
2018-04-14T22:06:11.920Z,42.43
2018-04-14T22:08:39.464Z,42.97
2018-04-14T22:11:07.309Z,42.00
2018-04-14T22:13:34.825Z,43.07
2018-04-14T22:16:02.346Z,42.47
2018-04-14T22:18:29.877Z,44.67
2018-04-14T22:20:58.175Z,43.87
2018-04-14T22:23:25.723Z,45.43
2018-04-14T22:25:53.240Z,51.73
2018-04-14T22:28:20.781Z,48.93
2018-04-14T22:30:48.321Z,52.57
2018-04-14T22:33:15.849Z,54.23
2018-04-14T22:35:44.155Z,46.20
2018-04-14T22:38:11.685Z,48.37
2018-04-14T22:40:39.259Z,62.13
2018-04-14T22:43:06.781Z,60.77
2018-04-14T22:45:34.341Z,56.27
2018-04-14T22:48:01.845Z,54.90
2018-04-14T22:50:29.362Z,49.50
2018-04-14T22:52:56.883Z,54.00
2018-04-14T22:55:24.391Z,58.10
2018-04-14T22:57:52.700Z,50.23
2018-04-14T23:00:20.317Z,49.33
2018-04-14T23:02:48.616Z,50.17
2018-04-14T23:05:16.283Z,44.37
2018-04-14T23:07:43.835Z,51.47
2018-04-14T23:10:11.506Z,48.93
2018-04-14T23:12:39.033Z,43.60
2018-04-14T23:15:07.315Z,49.60
2018-04-14T23:17:35.597Z,44.60
2018-04-14T23:20:03.893Z,43.87
2018-04-14T23:22:31.415Z,41.47
2018-04-14T23:24:59.117Z,42.33
2018-04-14T23:27:26.641Z,44.17
2018-04-14T23:29:54.915Z,40.57
2018-04-14T23:32:23.190Z,47.73
2018-04-14T23:34:51.469Z,42.20
2018-04-14T23:37:19.731Z,41.97
2018-04-14T23:39:47.252Z,42.20
2018-04-14T23:42:14.774Z,44.87
2018-04-14T23:44:42.314Z,41.97
2018-04-14T23:47:10.588Z,49.53
2018-04-14T23:49:39.071Z,44.73
2018-04-14T23:52:07.342Z,43.80
2018-04-14T23:54:35.634Z,43.83
2018-04-14T23:57:03.926Z,47.83
2018-04-14T23:59:31.450Z,39.30
